Ancona, IL

10:22 PM CDT on October 01, 2014 (GMT -0500)
Eplin/Connell Farm 2 miles NW of | Change Station
CLOSE
Current Station
Personal Weather Station
Location: Streator, IL
Elevation: 626 ft
Nearby Weather Stations

Elev 626 ft 41.17 °N, 88.85 °W | Updated 2 minutes ago

Overcast
Overcast
68.8 °F
Feels Like 68.8 °F
N
0.0
Wind Variable Wind from ENE
Gusts 7.0 mph

Today
High -- | Low -- °F
--% Chance of Precip.
Yesterday
High -- | Low -- °F
Precip. -- in
6:52 AM 6:37 PM
First Quarter, 54% visible
Pressure 30.01 in
Visibility 10.0 miles
Clouds Scattered Clouds 5000 ft
Dew Point 61 °F
Humidity 76%
Rainfall 0.00 in
Snow Depth Not available.
UV 0 out of 12
Pollen 4.70 out of 12
Air Quality Not available.
Flu Activity Not available.
METAR KPNT 010335Z AUTO 08004KT 10SM SCT050 11/09 A3001 RMK AO2

More Conditions Fewer Conditions

Pressure 30.01 in
Visibility 10.0 miles
Clouds Scattered Clouds 5000 ft
Dew Point 61 °F
Humidity 76%
Rainfall 0.00 in
Snow Depth Not available.
UV 0 out of 12
Pollen 4.70 out of 12
Air Quality Not available.
Flu Activity Not available.
METAR KPNT 010335Z AUTO 08004KT 10SM SCT050 11/09 A3001 RMK AO2

More Conditions Fewer Conditions

10-Day Weather Forecast

Almanac

Astronomy

Oct. 01, 2014 Rise Set
Actual Time 6:52 AM CDT 6:37 PM CDT
Civil Twilight 6:24 AM CDT 7:05 PM CDT
Nautical Twilight 5:53 AM CDT 7:36 PM CDT
Astronomical Twilight 5:20 AM CDT 8:09 PM CDT
Moon 1:55 PM CDT (10/1) No Moon Set
Length of Visible Light 12h 40m
Length of Day
11h 45m
Tomorrow will be 2m 42s shorter.
First Quarter, 54% of the Moon is Illuminated
Today
First Quarter
Oct 8
Full
Oct 15
Last Quarter
Oct 23
New
Oct 30
First Quarter

Today's Extremes

State Highs State Lows

Community

WunderPhotos

Upload Photos

1,758,161 photos uploaded!

WunderBlogs® & News

Nearby

Snow Depth

Station Depth Elevation
No new snow has been reported.

Earthquake Activity

City Distance Mag. Time & Date
No recent earthquake activity has been reported nearby.
Minimum magnitude displayed is 2.5.

Coastal Water Temperatures

Place Temperature
No Stations Reporting

Nearby Weather Stations